Time;durP1;ratioP1;P1;durP2;ratioP2;P2;SDS_P1;SDS_P2;PMS_P1;PMS_P2;Temp;Humidity;BMP_temperature;BMP_pressure;BME280_temperature;BME280_humidity;BME280_pressure;Samples;Min_cycle;Max_cycle;Signal;HPM_P1;HPM_P2
2023/05/01 00:04:26;;;;;;;7.18;4.68;;;;;;;12.45;71.20;101683.72;5186742;23;20173;-66
2023/05/01 00:11:55;;;;;;;6.68;4.53;;;;;;;12.46;72.35;101672.44;5245259;22;20520;-68
2023/05/01 00:14:21;;;;;;;6.70;4.60;;;;;;;12.43;72.28;101669.72;5022771;28;20026;-68
2023/05/01 00:16:46;;;;;;;6.90;4.35;;;;;;;12.37;72.74;101661.69;5023550;28;20323;-68
2023/05/01 00:19:17;;;;;;;7.45;4.82;;;;;;;12.33;73.18;101655.50;5192220;22;20586;-67
2023/05/01 00:21:44;;;;;;;6.75;5.10;;;;;;;12.33;72.66;101651.13;5016479;28;20068;-66
2023/05/01 00:24:09;;;;;;;6.63;4.50;;;;;;;12.34;72.97;101655.53;5360035;22;20084;-66
2023/05/01 00:29:04;;;;;;;6.47;4.57;;;;;;;12.40;74.14;101651.31;5129872;22;20020;-66
2023/05/01 00:31:29;;;;;;;8.90;4.65;;;;;;;12.40;73.37;101648.69;5265280;23;20068;-68
2023/05/01 00:33:55;;;;;;;6.25;4.40;;;;;;;12.39;73.23;101653.06;5196780;22;20051;-66
2023/05/01 00:36:20;;;;;;;5.75;4.15;;;;;;;12.40;73.36;101651.31;5193614;22;20055;-66
2023/05/01 00:38:45;;;;;;;6.38;4.50;;;;;;;12.38;73.12;101640.81;5165848;22;20446;-67
2023/05/01 00:41:11;;;;;;;8.38;4.45;;;;;;;12.37;72.87;101638.16;5216936;22;20024;-66
2023/05/01 00:46:07;;;;;;;8.23;4.18;;;;;;;12.32;72.70;101640.66;5154883;22;20061;-67
2023/05/01 00:48:32;;;;;;;7.43;4.50;;;;;;;12.31;72.46;101639.78;5337405;22;20578;-66
2023/05/01 00:50:59;;;;;;;8.13;4.70;;;;;;;12.28;72.39;101626.63;5135324;22;20128;-66
2023/05/01 00:53:27;;;;;;;6.32;4.28;;;;;;;12.29;72.62;101630.09;5216268;22;20045;-67
2023/05/01 00:58:26;;;;;;;6.78;4.60;;;;;;;12.31;72.92;101624.09;5191412;22;20106;-66
2023/05/01 01:00:51;;;;;;;8.88;4.70;;;;;;;12.32;72.75;101615.38;5556459;22;20046;-67
2023/05/01 01:06:03;;;;;;;7.57;4.47;;;;;;;12.29;72.84;101617.91;5053909;23;20391;-67
2023/05/01 01:11:20;;;;;;;7.05;4.35;;;;;;;12.28;72.28;101607.41;4770484;23;20054;-66
2023/05/01 01:19:00;;;;;;;7.82;4.60;;;;;;;12.16;72.25;101603.59;5122955;22;20058;-67
2023/05/01 01:24:46;;;;;;;6.25;4.80;;;;;;;12.18;72.23;101588.00;5175216;22;20032;-66
2023/05/01 01:30:21;;;;;;;8.13;4.50;;;;;;;12.13;72.53;101581.75;5282042;22;20023;-66
2023/05/01 01:32:55;;;;;;;10.57;4.45;;;;;;;12.10;72.79;101576.44;5210704;22;20049;-68
2023/05/01 01:38:02;;;;;;;6.72;4.45;;;;;;;12.06;73.48;101574.56;5218212;22;20053;-66
2023/05/01 01:40:48;;;;;;;6.55;4.57;;;;;;;12.04;73.30;101566.69;5182174;22;20060;-66
2023/05/01 01:45:48;;;;;;;7.70;4.68;;;;;;;11.99;73.82;101557.81;5011473;28;20123;-66
2023/05/01 01:48:18;;;;;;;7.33;4.80;;;;;;;11.97;73.45;101554.28;5436235;22;20122;-66
2023/05/01 01:50:45;;;;;;;7.63;4.70;;;;;;;11.96;73.87;101548.19;5296698;22;20048;-66
2023/05/01 01:53:14;;;;;;;6.35;4.47;;;;;;;11.96;73.77;101548.19;5377326;22;20581;-66
2023/05/01 01:55:42;;;;;;;7.95;4.70;;;;;;;11.97;73.99;101546.47;5245016;22;20055;-66
2023/05/01 02:03:14;;;;;;;8.40;4.93;;;;;;;11.94;73.98;101536.78;5254147;22;20057;-68
2023/05/01 02:05:42;;;;;;;7.07;4.65;;;;;;;11.93;74.57;101537.63;5395806;22;20038;-66
2023/05/01 02:08:09;;;;;;;8.40;5.18;;;;;;;11.93;74.22;101535.03;5464905;22;20070;-66
2023/05/01 02:10:37;;;;;;;9.00;5.20;;;;;;;11.90;74.66;101532.28;5404595;22;20736;-66
2023/05/01 02:13:03;;;;;;;7.60;5.00;;;;;;;11.90;74.05;101532.28;5410669;23;20525;-66
2023/05/01 02:15:30;;;;;;;10.57;5.03;;;;;;;11.90;74.28;101529.69;5002805;28;20280;-66
2023/05/01 02:17:56;;;;;;;8.30;5.10;;;;;;;11.88;74.80;101530.50;5233642;22;20113;-66
2023/05/01 02:20:22;;;;;;;7.97;4.82;;;;;;;11.88;74.45;101530.50;5151800;23;20052;-68
2023/05/01 02:25:14;;;;;;;7.13;4.90;;;;;;;11.82;74.26;101516.41;5325715;22;20060;-66
2023/05/01 02:27:45;;;;;;;8.02;4.90;;;;;;;11.82;74.92;101515.53;5198518;22;20058;-66
2023/05/01 02:32:43;;;;;;;8.63;5.10;;;;;;;11.82;74.48;101508.56;5241660;22;20654;-66
2023/05/01 02:35:09;;;;;;;7.20;5.13;;;;;;;11.81;74.31;101506.78;4997112;28;20038;-66
2023/05/01 02:40:06;;;;;;;8.73;5.75;;;;;;;11.80;74.56;101501.53;5361916;22;20068;-66
2023/05/01 02:47:32;;;;;;;8.50;5.22;;;;;;;11.78;74.50;101491.03;5084051;23;20060;-66
2023/05/01 02:49:59;;;;;;;9.27;5.63;;;;;;;11.78;74.45;101484.94;5216584;22;20049;-66
2023/05/01 02:54:50;;;;;;;9.55;5.25;;;;;;;11.77;74.65;101483.16;5084125;23;20057;-66
2023/05/01 02:59:42;;;;;;;8.38;5.43;;;;;;;11.72;74.67;101479.56;5162901;22;20508;-66
2023/05/01 03:02:07;;;;;;;9.20;5.53;;;;;;;11.70;74.73;101471.66;5144362;22;20062;-66
2023/05/01 03:04:33;;;;;;;8.20;5.45;;;;;;;11.69;75.27;101479.44;4996701;28;20037;-66
2023/05/01 03:06:58;;;;;;;8.57;5.13;;;;;;;11.65;75.41;101478.47;4998556;28;20044;-66
2023/05/01 03:09:23;;;;;;;9.15;5.10;;;;;;;11.63;75.46;101474.94;5208079;23;20156;-67
2023/05/01 03:11:48;;;;;;;9.57;5.57;;;;;;;11.63;75.41;101475.81;5326259;22;20060;-66
2023/05/01 03:14:14;;;;;;;9.90;5.78;;;;;;;11.61;75.30;101467.06;5435539;22;20518;-66
2023/05/01 03:16:40;;;;;;;11.60;5.60;;;;;;;11.61;75.52;101456.59;5191843;22;20069;-66
2023/05/01 03:19:05;;;;;;;9.70;5.88;;;;;;;11.59;75.51;101462.66;5183572;22;20065;-66
2023/05/01 03:21:31;;;;;;;8.88;5.78;;;;;;;11.57;75.29;101462.59;5179688;22;20057;-68
2023/05/01 03:23:57;;;;;;;9.05;5.47;;;;;;;11.55;75.84;101456.44;5052687;22;20049;-66
2023/05/01 03:26:22;;;;;;;10.73;5.75;;;;;;;11.56;76.17;101457.34;5019244;28;20469;-67
2023/05/01 03:28:47;;;;;;;10.45;5.60;;;;;;;11.57;75.97;101446.94;5181947;22;20111;-67
2023/05/01 03:31:13;;;;;;;9.40;5.85;;;;;;;11.54;76.31;101449.44;5406824;22;20057;-68
2023/05/01 03:33:39;;;;;;;9.10;5.68;;;;;;;11.53;76.44;101447.69;5167202;23;20058;-67
2023/05/01 03:36:04;;;;;;;10.60;6.10;;;;;;;11.52;76.40;101445.91;5236609;22;20057;-66
2023/05/01 03:38:30;;;;;;;7.60;5.35;;;;;;;11.51;76.27;101444.13;5222358;22;20120;-67
2023/05/01 03:40:56;;;;;;;8.90;6.10;;;;;;;11.51;76.21;101438.03;5041967;28;20029;-67
2023/05/01 03:43:22;;;;;;;9.55;5.38;;;;;;;11.51;76.07;101438.91;5295912;22;1090537;-68
2023/05/01 03:45:49;;;;;;;10.43;5.95;;;;;;;11.50;75.35;101434.56;5044412;28;20051;-69
2023/05/01 03:48:14;;;;;;;9.45;5.57;;;;;;;11.49;75.63;101432.78;5210428;22;20065;-66
2023/05/01 03:53:13;;;;;;;8.30;5.22;;;;;;;11.49;76.03;101430.16;5104333;22;20053;-67
2023/05/01 03:55:39;;;;;;;8.10;5.80;;;;;;;11.47;76.09;101437.94;5034046;28;20040;-67
2023/05/01 03:58:05;;;;;;;9.20;5.70;;;;;;;11.45;76.19;101430.91;5032009;28;20029;-66
2023/05/01 04:00:31;;;;;;;8.30;5.65;;;;;;;11.44;76.12;101426.53;5035634;28;20033;-67
2023/05/01 04:02:56;;;;;;;10.38;5.50;;;;;;;11.43;76.46;101423.03;5035295;28;20620;-67
2023/05/01 04:05:22;;;;;;;9.70;5.88;;;;;;;11.43;76.46;101422.16;5034200;28;20030;-67
2023/05/01 04:07:47;;;;;;;11.18;5.78;;;;;;;11.44;76.42;101429.13;5033668;28;20054;-67
2023/05/01 04:10:12;;;;;;;11.15;5.90;;;;;;;11.42;76.44;101421.25;5033527;28;20036;-67
2023/05/01 04:12:38;;;;;;;10.25;6.07;;;;;;;11.42;76.31;101417.78;5033878;28;20056;-67
2023/05/01 04:15:03;;;;;;;9.43;5.50;;;;;;;11.41;76.23;101414.28;5034959;28;20025;-67
2023/05/01 04:17:30;;;;;;;11.18;6.13;;;;;;;11.40;76.57;101417.72;5031460;28;20029;-67
2023/05/01 04:19:56;;;;;;;8.93;6.00;;;;;;;11.40;76.24;101416.88;5034510;28;20021;-67
2023/05/01 04:22:22;;;;;;;10.48;5.95;;;;;;;11.38;76.31;101427.22;5222326;22;21074;-67
2023/05/01 04:24:47;;;;;;;11.18;6.10;;;;;;;11.37;76.43;101424.56;5209308;22;20845;-67
2023/05/01 04:27:13;;;;;;;9.88;5.90;;;;;;;11.37;76.41;101419.34;5196323;22;20428;-67
2023/05/01 04:29:38;;;;;;;8.98;6.07;;;;;;;11.36;77.24;101422.81;5037687;28;20064;-67
2023/05/01 04:32:03;;;;;;;12.02;6.00;;;;;;;11.35;77.84;101423.66;5150410;22;20050;-67
2023/05/01 04:36:58;;;;;;;10.02;5.63;;;;;;;11.34;78.37;101432.31;5317909;22;20052;-66
2023/05/01 04:39:24;;;;;;;9.18;5.82;;;;;;;11.26;78.23;101437.31;5223020;23;20065;-66
2023/05/01 04:41:49;;;;;;;10.02;6.03;;;;;;;11.16;78.19;101430.91;5012829;28;20064;-67
2023/05/01 04:44:15;;;;;;;9.38;6.47;;;;;;;11.14;78.13;101427.41;5184376;22;20797;-67
2023/05/01 04:46:40;;;;;;;16.13;7.20;;;;;;;11.15;78.06;101436.97;5324418;22;20037;-67
2023/05/01 04:51:31;;;;;;;10.73;6.85;;;;;;;11.15;77.38;101429.13;5432762;22;20049;-68
2023/05/01 04:54:26;;;;;;;11.48;5.93;;;;;;;11.12;76.66;101423.84;5121248;22;20045;-96
2023/05/01 04:56:54;;;;;;;9.13;6.18;;;;;;;11.11;76.99;101417.75;5054084;28;20041;-96
2023/05/01 05:02:08;;;;;;;9.43;6.05;;;;;;;11.15;78.92;101421.31;5286858;22;20054;-68
2023/05/01 05:07:09;;;;;;;9.40;6.25;;;;;;;11.16;79.70;101422.22;5249375;22;20060;-67
2023/05/01 05:09:34;;;;;;;12.60;6.80;;;;;;;11.17;79.42;101424.00;5225806;22;20052;-68
2023/05/01 05:12:00;;;;;;;13.50;7.22;;;;;;;11.20;78.99;101426.69;5131591;22;20034;-68
2023/05/01 05:14:25;;;;;;;9.60;6.47;;;;;;;11.21;79.14;101423.22;5136311;22;20526;-67
2023/05/01 05:19:22;;;;;;;11.38;6.30;;;;;;;11.18;79.39;101424.03;5228742;22;20045;-66
2023/05/01 05:21:47;;;;;;;11.50;6.43;;;;;;;11.12;79.13;101423.84;5231816;22;20064;-67
2023/05/01 05:26:43;;;;;;;12.13;6.75;;;;;;;11.03;80.19;101419.22;5140242;22;20421;-68
2023/05/01 05:31:33;;;;;;;11.30;6.90;;;;;;;11.00;80.30;101420.88;5251962;22;20107;-67
2023/05/01 05:33:59;;;;;;;12.15;7.22;;;;;;;11.01;79.16;101425.22;5307192;22;20154;-67
2023/05/01 05:36:26;;;;;;;12.60;7.15;;;;;;;11.01;79.24;101417.41;5364851;22;20608;-67
2023/05/01 05:38:51;;;;;;;12.20;7.07;;;;;;;11.02;79.60;101416.56;5302974;22;20065;-67
2023/05/01 05:41:17;;;;;;;12.32;7.50;;;;;;;11.05;80.12;101421.88;5039367;28;20024;-67
2023/05/01 05:43:42;;;;;;;12.75;7.28;;;;;;;11.03;80.34;101418.34;5411924;22;20064;-67
2023/05/01 05:46:07;;;;;;;10.57;6.97;;;;;;;11.07;80.44;101421.09;5427246;22;20036;-67
2023/05/01 05:48:33;;;;;;;11.55;7.18;;;;;;;11.12;79.56;101421.22;5223406;22;20059;-67
2023/05/01 05:50:58;;;;;;;11.95;7.38;;;;;;;11.16;80.35;101419.63;5455789;22;20107;-68
2023/05/01 05:58:42;;;;;;;14.07;7.63;;;;;;;11.34;80.27;101412.34;5234024;22;20057;-67
2023/05/01 06:01:08;;;;;;;14.98;8.10;;;;;;;11.36;77.64;101401.94;5251912;22;20090;-67
2023/05/01 06:06:39;;;;;;;12.57;7.65;;;;;;;11.33;78.37;101407.97;5049754;23;20083;-67
2023/05/01 06:09:04;;;;;;;12.13;7.80;;;;;;;11.37;78.74;101411.53;5231570;22;20049;-68
2023/05/01 06:11:30;;;;;;;12.15;7.55;;;;;;;11.39;77.64;101412.47;5208009;22;20128;-68
2023/05/01 06:13:57;;;;;;;12.60;7.88;;;;;;;11.39;77.91;101418.56;5013082;28;20404;-68
2023/05/01 06:16:22;;;;;;;13.18;8.18;;;;;;;11.44;77.70;101416.09;5466284;22;21210;-67
2023/05/01 06:18:47;;;;;;;11.55;8.50;;;;;;;11.46;78.14;101409.19;5039675;28;20108;-67
2023/05/01 06:21:13;;;;;;;12.93;8.63;;;;;;;11.49;78.26;101404.06;5221834;22;20083;-67
2023/05/01 06:23:38;;;;;;;14.15;9.15;;;;;;;11.48;77.69;101399.69;5409730;22;20062;-67
2023/05/01 06:26:04;;;;;;;13.98;8.90;;;;;;;11.48;77.22;101399.69;5197579;23;20052;-67
2023/05/01 06:28:29;;;;;;;13.88;9.30;;;;;;;11.55;77.58;101411.19;5016196;28;20083;-67
2023/05/01 06:30:54;;;;;;;13.07;9.23;;;;;;;11.63;78.21;101407.09;5136685;22;20051;-67
2023/05/01 06:33:20;;;;;;;14.35;9.57;;;;;;;11.66;78.01;101415.88;5166506;22;20026;-67
2023/05/01 06:35:45;;;;;;;15.57;9.80;;;;;;;11.74;78.31;101412.59;5300580;22;20024;-67
2023/05/01 06:38:11;;;;;;;14.50;9.52;;;;;;;11.81;77.65;101398.88;5141110;23;20140;-67
2023/05/01 06:40:36;;;;;;;14.68;9.32;;;;;;;11.88;77.98;101400.81;5046008;28;20184;-67
2023/05/01 06:43:02;;;;;;;15.05;9.68;;;;;;;11.87;76.57;101401.63;5334064;22;20200;-68
2023/05/01 06:48:02;;;;;;;19.60;9.35;;;;;;;11.86;76.22;101401.59;4987730;22;20061;-67
2023/05/01 06:50:28;;;;;;;13.43;8.85;;;;;;;11.86;76.03;101391.16;5121017;23;20063;-67
2023/05/01 06:52:53;;;;;;;14.75;9.82;;;;;;;11.88;75.60;101397.31;5063193;23;20097;-66
2023/05/01 06:57:48;;;;;;;14.35;9.45;;;;;;;11.88;76.26;101392.09;5143307;22;20024;-67
2023/05/01 07:08:26;;;;;;;13.65;9.43;;;;;;;12.10;76.19;101399.69;5042510;23;20059;-96
2023/05/01 07:13:27;;;;;;;14.68;10.73;;;;;;;12.29;78.31;101401.03;4826988;22;20819;-68
2023/05/01 07:15:53;;;;;;;12.52;9.45;;;;;;;12.42;76.82;101394.38;5104010;22;20040;-66
2023/05/01 07:18:18;;;;;;;13.27;9.30;;;;;;;12.48;75.26;101397.19;5041414;28;20462;-66
2023/05/01 07:20:43;;;;;;;13.43;9.73;;;;;;;12.51;74.32;101396.34;5043510;28;20054;-66
2023/05/01 07:23:09;;;;;;;14.00;9.20;;;;;;;12.56;75.09;101397.34;5228137;22;20065;-67
2023/05/01 07:25:36;;;;;;;14.18;9.88;;;;;;;12.66;76.24;101401.94;5168112;22;20075;-68
2023/05/01 07:28:03;;;;;;;13.93;9.40;;;;;;;12.69;74.40;101401.16;5087173;23;20782;-68
2023/05/01 07:30:29;;;;;;;13.10;9.50;;;;;;;12.78;77.40;101403.09;5032432;28;20022;-68
2023/05/01 07:32:56;;;;;;;13.73;8.90;;;;;;;12.87;74.51;101405.91;5015749;28;20084;-68
2023/05/01 07:37:51;;;;;;;14.40;9.52;;;;;;;13.07;74.60;101400.25;5089871;22;20054;-66
2023/05/01 07:45:24;;;;;;;15.55;9.23;;;;;;;13.37;72.49;101406.19;5039324;22;20062;-66
2023/05/01 07:52:51;;;;;;;14.43;9.88;;;;;;;13.76;73.93;101403.47;5400595;22;20020;-67
2023/05/01 07:55:18;;;;;;;14.30;9.70;;;;;;;13.88;72.60;101401.09;5335348;22;20786;-67
2023/05/01 07:57:43;;;;;;;12.95;9.77;;;;;;;13.95;72.91;101410.81;5043875;28;20037;-67
2023/05/01 08:02:39;;;;;;;15.48;10.57;;;;;;;14.24;75.57;101402.63;5043755;22;20057;-67
2023/05/01 08:05:05;;;;;;;13.85;10.13;;;;;;;14.37;73.89;101401.09;5121594;22;20514;-67
2023/05/01 08:07:31;;;;;;;14.75;10.57;;;;;;;14.53;73.05;101397.84;5027193;28;20025;-67
2023/05/01 08:09:56;;;;;;;53.65;38.40;;;;;;;14.73;73.99;101399.94;5166165;22;20111;-67
2023/05/01 08:12:21;;;;;;;16.48;12.65;;;;;;;14.93;72.56;101397.59;5158343;22;20046;-67
2023/05/01 08:14:47;;;;;;;25.88;18.70;;;;;;;15.11;71.46;101392.63;5218388;22;20064;-67
2023/05/01 08:17:12;;;;;;;17.05;10.57;;;;;;;15.33;70.74;101392.91;5198526;22;20054;-67
2023/05/01 08:20:03;;;;;;;13.82;10.85;;;;;;;15.50;70.02;101389.59;5083831;23;20068;-96
2023/05/01 08:22:29;;;;;;;21.05;16.83;;;;;;;15.71;67.61;101381.97;5056406;22;20045;-67
2023/05/01 08:24:55;;;;;;;17.35;12.00;;;;;;;15.94;68.48;101387.50;5370151;22;20054;-68
2023/05/01 08:27:20;;;;;;;17.98;12.02;;;;;;;16.15;68.95;101392.09;5216158;22;20060;-67
2023/05/01 08:29:45;;;;;;;15.68;11.20;;;;;;;16.20;66.52;101389.50;5469275;22;20057;-67
2023/05/01 08:32:11;;;;;;;15.90;11.15;;;;;;;16.40;67.40;101387.06;5070130;22;20056;-67
2023/05/01 08:34:36;;;;;;;15.32;11.48;;;;;;;16.60;66.20;101386.34;4949227;28;20642;-67
2023/05/01 08:37:01;;;;;;;15.05;10.50;;;;;;;16.79;65.28;101384.72;5183085;23;20057;-67
2023/05/01 08:40:17;;;;;;;13.45;11.35;;;;;;;16.91;64.76;101387.44;5067570;22;20050;-96
2023/05/01 08:47:43;;;;;;;15.20;10.52;;;;;;;16.95;62.74;101386.59;5108645;22;20218;-67
2023/05/01 08:50:10;;;;;;;13.50;10.48;;;;;;;16.97;64.32;101387.47;5206370;22;20279;-67
2023/05/01 08:52:41;;;;;;;18.33;11.30;;;;;;;17.00;63.89;101391.88;5427960;22;20056;-67
2023/05/01 08:55:10;;;;;;;14.23;10.68;;;;;;;17.00;64.61;101391.88;5029853;28;20040;-67
2023/05/01 09:08:10;;;;;;;13.38;9.45;;;;;;;17.19;63.28;101388.50;5034506;23;20103;-96
2023/05/01 09:10:43;;;;;;;11.43;8.15;;;;;;;17.16;60.60;101392.84;5009947;28;20467;-96
2023/05/01 09:13:09;;;;;;;11.48;9.15;;;;;;;17.21;61.64;101393.75;5016514;28;20032;-96
2023/05/01 09:15:57;;;;;;;12.77;9.38;;;;;;;17.22;62.74;101385.00;5016667;28;20063;-96
2023/05/01 09:18:23;;;;;;;12.15;9.20;;;;;;;17.22;60.15;101390.28;5042938;22;20017;-71
2023/05/01 09:20:48;;;;;;;14.10;9.73;;;;;;;17.13;60.31;101399.00;5138345;22;20056;-71
2023/05/01 09:23:13;;;;;;;12.98;9.18;;;;;;;17.16;63.56;101384.94;5138380;22;20072;-71
2023/05/01 09:28:14;;;;;;;13.50;9.57;;;;;;;17.26;60.04;101385.88;5105751;22;21297;-70
2023/05/01 09:38:19;;;;;;;14.75;10.90;;;;;;;17.53;60.73;101382.47;5124063;23;20061;-70
2023/05/01 09:40:45;;;;;;;15.32;10.63;;;;;;;17.62;63.26;101379.88;5349537;22;20113;-71
2023/05/01 09:43:10;;;;;;;16.60;11.00;;;;;;;17.71;62.23;101382.53;5440512;22;20057;-71
2023/05/01 09:45:36;;;;;;;13.70;10.07;;;;;;;17.84;63.62;101386.09;5041456;28;20060;-70
2023/05/01 09:48:12;;;;;;;13.25;9.82;;;;;;;18.02;61.53;101389.66;5225523;22;20544;-71
2023/05/01 09:55:40;;;;;;;13.80;9.70;;;;;;;18.30;59.35;101384.41;5267201;22;20065;-71
2023/05/01 10:00:50;;;;;;;;;;;;;;;18.85;62.14;101388.78;5442146;22;20067;-70
2023/05/01 10:03:15;;;;;;;12.10;8.60;;;;;;;19.04;57.74;101387.00;5250495;22;20353;-70
2023/05/01 10:05:44;;;;;;;10.65;8.63;;;;;;;19.23;59.32;101388.69;5279807;22;20048;-70
2023/05/01 10:08:13;;;;;;;14.40;9.85;;;;;;;19.21;54.44;101392.22;5044970;28;20511;-70
2023/05/01 10:10:42;;;;;;;12.77;9.15;;;;;;;19.15;56.87;101390.47;5047921;28;20029;-70
2023/05/01 10:15:37;;;;;;;12.15;8.32;;;;;;;18.99;55.04;101396.69;5034595;22;20057;-67
2023/05/01 10:18:03;;;;;;;12.23;8.35;;;;;;;18.93;54.31;101397.59;5136516;22;20057;-69
2023/05/01 10:23:02;;;;;;;12.18;8.93;;;;;;;18.83;54.82;101398.44;5174715;22;20052;-68
2023/05/01 10:25:28;;;;;;;12.07;8.25;;;;;;;18.82;56.24;101388.78;5350191;22;20031;-68
2023/05/01 10:27:56;;;;;;;11.82;9.13;;;;;;;18.88;56.91;101402.84;5255378;22;20159;-68
2023/05/01 10:30:21;;;;;;;12.38;9.55;;;;;;;18.92;57.09;101396.69;5206762;22;20057;-68
2023/05/01 10:32:47;;;;;;;13.00;9.60;;;;;;;18.99;57.88;101401.97;5186685;23;20065;-68
2023/05/01 10:35:18;;;;;;;13.18;8.82;;;;;;;19.03;60.00;101399.31;5141529;22;20478;-68
2023/05/01 10:40:38;;;;;;;12.75;9.65;;;;;;;18.92;59.86;101401.97;5220913;22;20057;-68
2023/05/01 10:43:30;;;;;;;13.00;9.50;;;;;;;18.76;60.03;101403.72;5273925;22;20099;-68
2023/05/01 10:52:19;;;;;;;13.57;9.77;;;;;;;18.79;62.67;101396.72;4962302;28;20151;-96
2023/05/01 10:54:44;;;;;;;12.55;9.20;;;;;;;18.80;61.74;101401.97;4973954;28;20041;-96
2023/05/01 10:57:51;;;;;;;14.65;9.70;;;;;;;18.87;60.84;101403.75;4978446;28;20035;-96
2023/05/01 11:00:21;;;;;;;14.98;10.27;;;;;;;18.94;59.24;101401.97;4955613;28;20624;-96
2023/05/01 11:02:47;;;;;;;;;;;;;;;19.10;61.54;101401.06;4968410;28;20860;-96
2023/05/01 11:06:13;;;;;;;13.95;9.35;;;;;;;19.39;61.50;101397.44;4981709;28;19914;-96
2023/05/01 11:08:39;;;;;;;13.52;9.25;;;;;;;19.60;58.46;101390.31;4956828;28;20476;-96
2023/05/01 11:11:20;;;;;;;14.15;9.68;;;;;;;19.72;59.57;101398.16;4974233;28;20038;-96
2023/05/01 11:14:06;;;;;;;14.02;10.13;;;;;;;19.80;58.96;101401.69;4956710;28;20038;-96
2023/05/01 11:16:45;;;;;;;13.20;9.77;;;;;;;19.86;57.57;101400.75;4957611;28;20027;-96
2023/05/01 11:19:44;;;;;;;15.90;9.73;;;;;;;19.96;58.89;101401.59;4964216;28;20027;-96
2023/05/01 11:22:17;;;;;;;14.25;9.48;;;;;;;19.95;57.45;101394.53;4958412;28;20031;-96
2023/05/01 11:25:22;;;;;;;14.30;9.65;;;;;;;19.95;56.76;101402.47;4989992;28;20026;-96
2023/05/01 11:27:52;;;;;;;13.27;10.30;;;;;;;20.02;55.77;101405.97;5375752;23;20040;-70
2023/05/01 11:30:21;;;;;;;14.43;9.20;;;;;;;20.04;55.08;101402.41;5198853;22;20042;-96
2023/05/01 11:32:48;;;;;;;13.55;9.85;;;;;;;20.03;57.07;101405.06;5007497;28;20022;-96
2023/05/01 11:35:22;;;;;;;13.88;8.98;;;;;;;19.98;56.67;101405.09;5002132;28;20026;-96
2023/05/01 11:37:50;;;;;;;12.57;9.27;;;;;;;19.92;55.71;101405.13;5004689;28;20028;-96
2023/05/01 11:40:25;;;;;;;13.52;8.82;;;;;;;19.90;56.89;101410.44;5006794;28;20025;-96
2023/05/01 11:43:13;;;;;;;15.18;8.70;;;;;;;20.00;55.80;101408.59;5007419;28;20032;-96
2023/05/01 11:45:50;;;;;;;12.60;9.15;;;;;;;20.05;51.33;101400.66;5008190;28;20045;-96
2023/05/01 11:48:20;;;;;;;16.42;10.02;;;;;;;20.09;54.26;101411.19;5030276;28;20066;-96
2023/05/01 11:50:47;;;;;;;16.77;9.20;;;;;;;20.09;52.88;101405.03;5032399;28;20042;-96
2023/05/01 11:53:17;;;;;;;13.23;8.50;;;;;;;20.14;54.64;101404.09;5011223;28;20022;-96
2023/05/01 11:55:48;;;;;;;12.18;8.05;;;;;;;20.10;55.56;101406.78;5015664;28;20029;-96
2023/05/01 11:58:13;;;;;;;11.63;7.78;;;;;;;20.08;55.50;101401.50;5017574;28;20061;-96
2023/05/01 12:00:55;;;;;;;38.03;9.90;;;;;;;20.31;55.40;101411.91;5012070;28;20018;-96
2023/05/01 12:03:23;;;;;;;19.23;9.85;;;;;;;20.40;48.71;101404.78;5009762;28;20092;-96
2023/05/01 12:05:49;;;;;;;13.57;8.25;;;;;;;20.42;51.32;101408.28;5012095;28;20033;-96
2023/05/01 12:08:20;;;;;;;15.07;8.85;;;;;;;20.53;51.79;101416.16;4996634;28;20018;-96
2023/05/01 12:10:54;;;;;;;11.45;8.77;;;;;;;20.63;53.41;101416.06;5010997;28;20087;-96
2023/05/01 12:13:20;;;;;;;25.65;9.57;;;;;;;20.44;52.60;101419.75;5007482;28;20049;-96
2023/05/01 12:15:50;;;;;;;13.07;8.75;;;;;;;20.31;53.25;101416.34;5017549;28;20502;-96
2023/05/01 12:18:16;;;;;;;13.23;8.50;;;;;;;20.41;55.07;101410.06;5012778;28;20030;-96
2023/05/01 12:20:50;;;;;;;12.68;9.07;;;;;;;20.28;54.52;101414.59;5006195;28;20026;-96
2023/05/01 12:23:28;;;;;;;12.27;8.30;;;;;;;20.21;50.92;101415.53;5005873;28;20034;-96
2023/05/01 12:25:59;;;;;;;13.30;8.17;;;;;;;20.32;52.88;101416.31;5012792;28;20030;-96
2023/05/01 12:28:26;;;;;;;10.00;7.55;;;;;;;20.51;51.67;101410.88;5010887;28;20029;-96
2023/05/01 12:30:56;;;;;;;12.95;7.97;;;;;;;20.72;51.84;101406.31;5025064;28;20045;-96
2023/05/01 12:33:27;;;;;;;10.50;7.45;;;;;;;20.78;51.11;101411.53;5049411;28;20033;-96
2023/05/01 12:36:08;;;;;;;9.75;8.05;;;;;;;20.80;51.65;101404.47;5029038;28;20028;-96
2023/05/01 12:38:41;;;;;;;10.65;6.80;;;;;;;20.93;51.15;101414.03;5026160;28;20026;-96
2023/05/01 12:41:08;;;;;;;9.70;6.40;;;;;;;21.00;50.34;101410.44;5028920;28;20067;-96
2023/05/01 12:43:36;;;;;;;9.82;6.18;;;;;;;21.01;50.58;101409.56;5032085;28;20028;-96
2023/05/01 12:46:03;;;;;;;10.27;6.32;;;;;;;21.11;50.33;101405.00;5027045;28;20306;-96
2023/05/01 12:48:37;;;;;;;8.80;5.88;;;;;;;21.15;50.37;101412.03;5021726;28;20025;-96
2023/05/01 12:51:03;;;;;;;8.98;5.93;;;;;;;21.21;48.97;101405.78;5026727;28;20363;-96
2023/05/01 12:53:42;;;;;;;9.25;6.18;;;;;;;21.25;47.74;101412.81;5025364;28;20054;-96
2023/05/01 12:56:08;;;;;;;;;;;;;;;21.40;51.14;101409.09;5029105;28;20115;-96
2023/05/01 12:58:37;;;;;;;9.48;6.57;;;;;;;21.34;48.89;101399.44;5033538;28;19947;-96
2023/05/01 13:01:05;;;;;;;;;;;;;;;21.54;50.16;101408.97;5023334;28;20029;-96
2023/05/01 13:03:33;;;;;;;9.68;7.03;;;;;;;21.59;48.38;101407.09;5023305;28;19913;-96
2023/05/01 13:06:01;;;;;;;11.25;7.43;;;;;;;21.67;48.95;101415.84;5021430;28;20082;-96
2023/05/01 13:08:28;;;;;;;10.63;6.90;;;;;;;21.69;46.58;101414.03;5041730;28;20079;-96
2023/05/01 13:11:12;;;;;;;10.43;6.78;;;;;;;21.63;49.20;101414.13;5027747;28;20037;-96
2023/05/01 13:13:48;;;;;;;;;;;;;;;;;;;;;
2023/05/01 13:16:30;;;;;;;;;;;;;;;;;;;;;
2023/05/01 13:18:57;;;;;;;10.55;7.13;;;;;;;21.75;46.51;101422.81;5037191;28;20064;-96
2023/05/01 13:21:54;;;;;;;10.70;6.53;;;;;;;21.49;50.00;101413.41;5026806;28;20033;-96
2023/05/01 13:25:11;;;;;;;11.38;6.07;;;;;;;21.21;50.23;101428.78;5044295;28;20040;-96
2023/05/01 13:27:58;;;;;;;10.95;6.40;;;;;;;21.04;49.21;101423.66;5041655;28;20051;-96
2023/05/01 13:30:38;;;;;;;10.65;5.80;;;;;;;20.82;50.03;101419.44;5039422;28;20041;-96
2023/05/01 13:33:09;;;;;;;9.88;6.35;;;;;;;20.63;49.25;101416.06;5038457;28;20537;-96
2023/05/01 13:35:38;;;;;;;9.13;5.55;;;;;;;20.58;48.89;101419.63;5046133;28;20021;-96
2023/05/01 13:38:09;;;;;;;7.13;4.80;;;;;;;20.54;49.01;101429.38;5036791;28;20030;-96
2023/05/01 13:40:38;;;;;;;9.25;5.30;;;;;;;20.46;48.43;101418.84;5052741;28;20029;-96
2023/05/01 13:43:21;;;;;;;8.02;5.18;;;;;;;20.44;49.08;101425.06;5035924;28;20025;-96
2023/05/01 13:46:28;;;;;;;8.95;6.13;;;;;;;20.50;51.19;101422.34;5054153;28;20044;-96
2023/05/01 13:48:53;;;;;;;9.60;5.68;;;;;;;20.48;50.94;101418.84;5042830;28;20041;-96
2023/05/01 13:51:36;;;;;;;9.50;4.47;;;;;;;20.57;48.04;101426.72;5043542;28;20049;-96
2023/05/01 13:59:05;;;;;;;7.43;4.22;;;;;;;20.24;48.29;101428.72;5185487;22;20037;-96
2023/05/01 14:01:40;;;;;;;11.27;4.40;;;;;;;20.21;47.38;101435.81;5053486;28;20028;-96
2023/05/01 14:04:14;;;;;;;7.00;4.45;;;;;;;20.20;48.66;101437.56;5048872;28;20572;-96
2023/05/01 14:06:42;;;;;;;16.08;10.25;;;;;;;20.06;46.58;101436.78;5055054;22;20061;-70
2023/05/01 14:09:07;;;;;;;18.48;13.35;;;;;;;20.02;47.47;101435.06;5166131;22;20614;-71
2023/05/01 14:11:32;;;;;;;12.60;7.15;;;;;;;20.00;48.24;101436.81;5037370;28;20113;-70
2023/05/01 14:13:59;;;;;;;9.43;4.30;;;;;;;19.87;46.74;101436.91;5347510;22;20072;-71
2023/05/01 14:16:26;;;;;;;8.00;4.07;;;;;;;19.73;47.85;101439.59;5036723;28;20400;-71
2023/05/01 14:18:55;;;;;;;9.68;3.97;;;;;;;19.64;48.64;101440.50;5037784;28;20025;-72
2023/05/01 14:21:22;;;;;;;9.70;4.38;;;;;;;19.58;47.81;101440.53;5064468;22;20026;-71
2023/05/01 14:26:20;;;;;;;7.85;4.78;;;;;;;19.52;50.40;101445.81;5099033;23;20061;-66